sensor_id;sensor_type;location;lat;lon;timestamp;temperature;humidity
48836;DHT22;62581;47.342;7.908;2023-07-16T00:00:59;21.20;99.90
48836;DHT22;62581;47.342;7.908;2023-07-16T00:03:26;21.20;99.90
48836;DHT22;62581;47.342;7.908;2023-07-16T00:05:54;21.20;99.90
48836;DHT22;62581;47.342;7.908;2023-07-16T00:08:21;21.20;99.90
48836;DHT22;62581;47.342;7.908;2023-07-16T00:10:48;21.10;99.90
48836;DHT22;62581;47.342;7.908;2023-07-16T00:13:15;21.10;99.90
48836;DHT22;62581;47.342;7.908;2023-07-16T00:15:41;21.10;99.90
48836;DHT22;62581;47.342;7.908;2023-07-16T00:18:08;21.00;99.90
48836;DHT22;62581;47.342;7.908;2023-07-16T00:20:35;21.00;99.90
48836;DHT22;62581;47.342;7.908;2023-07-16T00:23:03;21.00;99.90
48836;DHT22;62581;47.342;7.908;2023-07-16T00:25:30;21.00;99.90
48836;DHT22;62581;47.342;7.908;2023-07-16T00:27:57;20.90;99.90
48836;DHT22;62581;47.342;7.908;2023-07-16T00:30:23;20.90;99.90
48836;DHT22;62581;47.342;7.908;2023-07-16T00:32:50;20.90;99.90
48836;DHT22;62581;47.342;7.908;2023-07-16T00:35:17;20.90;99.90
48836;DHT22;62581;47.342;7.908;2023-07-16T00:37:44;21.00;99.90
48836;DHT22;62581;47.342;7.908;2023-07-16T00:40:13;21.00;99.90
48836;DHT22;62581;47.342;7.908;2023-07-16T00:42:39;21.00;99.90
48836;DHT22;62581;47.342;7.908;2023-07-16T00:45:08;21.00;99.90
48836;DHT22;62581;47.342;7.908;2023-07-16T00:47:35;21.00;99.90
48836;DHT22;62581;47.342;7.908;2023-07-16T00:50:02;21.00;99.90
48836;DHT22;62581;47.342;7.908;2023-07-16T00:52:29;21.00;99.90
48836;DHT22;62581;47.342;7.908;2023-07-16T00:54:57;21.00;99.90
48836;DHT22;62581;47.342;7.908;2023-07-16T00:57:26;21.00;99.90
48836;DHT22;62581;47.342;7.908;2023-07-16T00:59:52;21.00;99.90
48836;DHT22;62581;47.342;7.908;2023-07-16T01:02:19;21.00;99.90
48836;DHT22;62581;47.342;7.908;2023-07-16T01:04:46;21.00;99.90
48836;DHT22;62581;47.342;7.908;2023-07-16T01:07:13;20.90;99.90
48836;DHT22;62581;47.342;7.908;2023-07-16T01:09:41;20.80;99.90
48836;DHT22;62581;47.342;7.908;2023-07-16T01:12:08;20.90;99.90
48836;DHT22;62581;47.342;7.908;2023-07-16T01:14:36;20.90;99.90
48836;DHT22;62581;47.342;7.908;2023-07-16T01:17:04;20.90;99.90
48836;DHT22;62581;47.342;7.908;2023-07-16T01:19:32;20.90;99.90
48836;DHT22;62581;47.342;7.908;2023-07-16T01:22:03;20.90;99.90
48836;DHT22;62581;47.342;7.908;2023-07-16T01:24:46;21.00;99.90
48836;DHT22;62581;47.342;7.908;2023-07-16T01:27:30;21.00;99.90
48836;DHT22;62581;47.342;7.908;2023-07-16T01:30:03;21.00;99.90
48836;DHT22;62581;47.342;7.908;2023-07-16T01:32:30;21.00;99.90
48836;DHT22;62581;47.342;7.908;2023-07-16T01:34:57;21.00;99.90
48836;DHT22;62581;47.342;7.908;2023-07-16T01:37:24;21.00;99.90
48836;DHT22;62581;47.342;7.908;2023-07-16T01:39:51;21.00;99.90
48836;DHT22;62581;47.342;7.908;2023-07-16T01:42:18;20.80;99.90
48836;DHT22;62581;47.342;7.908;2023-07-16T01:44:44;20.80;99.90
48836;DHT22;62581;47.342;7.908;2023-07-16T01:47:13;20.80;99.90
48836;DHT22;62581;47.342;7.908;2023-07-16T01:49:40;20.90;99.90
48836;DHT22;62581;47.342;7.908;2023-07-16T01:52:08;20.90;99.90
48836;DHT22;62581;47.342;7.908;2023-07-16T01:54:35;20.90;99.90
48836;DHT22;62581;47.342;7.908;2023-07-16T01:57:02;20.90;99.90
48836;DHT22;62581;47.342;7.908;2023-07-16T01:59:29;21.00;99.90
48836;DHT22;62581;47.342;7.908;2023-07-16T02:01:55;21.00;99.90
48836;DHT22;62581;47.342;7.908;2023-07-16T02:04:24;20.90;99.90
48836;DHT22;62581;47.342;7.908;2023-07-16T02:06:50;20.90;99.90
48836;DHT22;62581;47.342;7.908;2023-07-16T02:09:17;20.90;99.90
48836;DHT22;62581;47.342;7.908;2023-07-16T02:11:44;20.90;99.90
48836;DHT22;62581;47.342;7.908;2023-07-16T02:14:10;20.90;99.90
48836;DHT22;62581;47.342;7.908;2023-07-16T02:16:39;20.90;99.90
48836;DHT22;62581;47.342;7.908;2023-07-16T02:19:06;20.90;99.90
48836;DHT22;62581;47.342;7.908;2023-07-16T02:21:34;20.90;99.90
48836;DHT22;62581;47.342;7.908;2023-07-16T02:24:01;20.90;99.90
48836;DHT22;62581;47.342;7.908;2023-07-16T02:26:27;20.80;99.90
48836;DHT22;62581;47.342;7.908;2023-07-16T02:28:54;20.90;99.90
48836;DHT22;62581;47.342;7.908;2023-07-16T02:31:21;20.80;99.90
48836;DHT22;62581;47.342;7.908;2023-07-16T02:33:48;20.80;99.90
48836;DHT22;62581;47.342;7.908;2023-07-16T02:36:14;20.80;99.90
48836;DHT22;62581;47.342;7.908;2023-07-16T02:38:43;20.80;99.90
48836;DHT22;62581;47.342;7.908;2023-07-16T02:41:09;20.70;99.90
48836;DHT22;62581;47.342;7.908;2023-07-16T02:43:36;20.80;99.90
48836;DHT22;62581;47.342;7.908;2023-07-16T02:46:03;20.70;99.90
48836;DHT22;62581;47.342;7.908;2023-07-16T02:48:29;20.70;99.90
48836;DHT22;62581;47.342;7.908;2023-07-16T02:50:56;20.70;99.90
48836;DHT22;62581;47.342;7.908;2023-07-16T02:53:23;20.70;99.90
48836;DHT22;62581;47.342;7.908;2023-07-16T02:55:51;20.70;99.90
48836;DHT22;62581;47.342;7.908;2023-07-16T02:58:18;20.70;99.90
48836;DHT22;62581;47.342;7.908;2023-07-16T03:00:45;20.60;99.90
48836;DHT22;62581;47.342;7.908;2023-07-16T03:03:11;20.60;99.90
48836;DHT22;62581;47.342;7.908;2023-07-16T03:05:38;20.60;99.90
48836;DHT22;62581;47.342;7.908;2023-07-16T03:08:05;20.60;99.90
48836;DHT22;62581;47.342;7.908;2023-07-16T03:10:31;20.60;99.90
48836;DHT22;62581;47.342;7.908;2023-07-16T03:13:00;20.60;99.90
48836;DHT22;62581;47.342;7.908;2023-07-16T03:15:26;20.50;99.90
48836;DHT22;62581;47.342;7.908;2023-07-16T03:17:53;20.50;99.90
48836;DHT22;62581;47.342;7.908;2023-07-16T03:20:20;20.50;99.90
48836;DHT22;62581;47.342;7.908;2023-07-16T03:22:47;20.50;99.90
48836;DHT22;62581;47.342;7.908;2023-07-16T03:25:14;20.50;99.90
48836;DHT22;62581;47.342;7.908;2023-07-16T03:27:41;20.50;99.90
48836;DHT22;62581;47.342;7.908;2023-07-16T03:30:09;20.50;99.90
48836;DHT22;62581;47.342;7.908;2023-07-16T03:32:36;20.40;99.90
48836;DHT22;62581;47.342;7.908;2023-07-16T03:35:03;20.40;99.90
48836;DHT22;62581;47.342;7.908;2023-07-16T03:37:30;20.40;99.90
48836;DHT22;62581;47.342;7.908;2023-07-16T03:39:56;20.40;99.90
48836;DHT22;62581;47.342;7.908;2023-07-16T03:42:23;20.30;99.90
48836;DHT22;62581;47.342;7.908;2023-07-16T03:44:51;20.30;99.90
48836;DHT22;62581;47.342;7.908;2023-07-16T03:47:19;20.20;99.90
48836;DHT22;62581;47.342;7.908;2023-07-16T03:49:46;20.20;99.90
48836;DHT22;62581;47.342;7.908;2023-07-16T03:52:13;20.20;99.90
48836;DHT22;62581;47.342;7.908;2023-07-16T03:54:39;20.20;99.90
48836;DHT22;62581;47.342;7.908;2023-07-16T03:57:06;20.30;99.90
48836;DHT22;62581;47.342;7.908;2023-07-16T03:59:33;20.30;99.90
48836;DHT22;62581;47.342;7.908;2023-07-16T04:02:00;20.20;99.90
48836;DHT22;62581;47.342;7.908;2023-07-16T04:04:28;20.20;99.90
48836;DHT22;62581;47.342;7.908;2023-07-16T04:06:54;20.20;99.90
48836;DHT22;62581;47.342;7.908;2023-07-16T04:09:21;20.20;99.90
48836;DHT22;62581;47.342;7.908;2023-07-16T04:11:48;20.20;99.90
48836;DHT22;62581;47.342;7.908;2023-07-16T04:14:15;20.20;99.90
48836;DHT22;62581;47.342;7.908;2023-07-16T04:16:42;20.20;99.90
48836;DHT22;62581;47.342;7.908;2023-07-16T04:19:09;20.30;99.90
48836;DHT22;62581;47.342;7.908;2023-07-16T04:21:37;20.20;99.90
48836;DHT22;62581;47.342;7.908;2023-07-16T04:24:04;20.20;99.90
48836;DHT22;62581;47.342;7.908;2023-07-16T04:26:31;20.20;99.90
48836;DHT22;62581;47.342;7.908;2023-07-16T04:28:58;20.20;99.90
48836;DHT22;62581;47.342;7.908;2023-07-16T04:31:25;20.20;99.90
48836;DHT22;62581;47.342;7.908;2023-07-16T04:33:52;20.30;99.90
48836;DHT22;62581;47.342;7.908;2023-07-16T04:36:19;20.30;99.90
48836;DHT22;62581;47.342;7.908;2023-07-16T04:38:47;20.40;99.90
48836;DHT22;62581;47.342;7.908;2023-07-16T04:41:13;20.40;99.90
48836;DHT22;62581;47.342;7.908;2023-07-16T04:43:40;20.40;99.90
48836;DHT22;62581;47.342;7.908;2023-07-16T04:46:07;20.40;99.90
48836;DHT22;62581;47.342;7.908;2023-07-16T04:48:33;20.50;99.90
48836;DHT22;62581;47.342;7.908;2023-07-16T04:51:00;20.40;99.90
48836;DHT22;62581;47.342;7.908;2023-07-16T04:53:27;20.40;99.90
48836;DHT22;62581;47.342;7.908;2023-07-16T04:55:55;20.30;99.90
48836;DHT22;62581;47.342;7.908;2023-07-16T04:58:24;20.30;99.90
48836;DHT22;62581;47.342;7.908;2023-07-16T05:00:50;20.30;99.90
48836;DHT22;62581;47.342;7.908;2023-07-16T05:03:17;20.40;99.90
48836;DHT22;62581;47.342;7.908;2023-07-16T05:05:44;20.20;99.90
48836;DHT22;62581;47.342;7.908;2023-07-16T05:08:11;20.20;99.90
48836;DHT22;62581;47.342;7.908;2023-07-16T05:10:37;20.20;99.90
48836;DHT22;62581;47.342;7.908;2023-07-16T05:13:05;20.30;99.90
48836;DHT22;62581;47.342;7.908;2023-07-16T05:15:32;20.30;99.90
48836;DHT22;62581;47.342;7.908;2023-07-16T05:17:59;20.40;99.90
48836;DHT22;62581;47.342;7.908;2023-07-16T05:20:26;20.50;99.90
48836;DHT22;62581;47.342;7.908;2023-07-16T05:22:52;20.60;99.90
48836;DHT22;62581;47.342;7.908;2023-07-16T05:25:19;20.60;99.90
48836;DHT22;62581;47.342;7.908;2023-07-16T05:27:46;20.60;99.90
48836;DHT22;62581;47.342;7.908;2023-07-16T05:30:14;20.60;99.90
48836;DHT22;62581;47.342;7.908;2023-07-16T05:32:40;20.60;99.90
48836;DHT22;62581;47.342;7.908;2023-07-16T05:35:07;20.60;99.90
48836;DHT22;62581;47.342;7.908;2023-07-16T05:37:34;20.70;99.90
48836;DHT22;62581;47.342;7.908;2023-07-16T05:40:01;20.80;99.90
48836;DHT22;62581;47.342;7.908;2023-07-16T05:42:28;20.90;99.90
48836;DHT22;62581;47.342;7.908;2023-07-16T05:44:55;20.90;99.90
48836;DHT22;62581;47.342;7.908;2023-07-16T05:47:23;20.90;99.90
48836;DHT22;62581;47.342;7.908;2023-07-16T05:49:50;20.90;99.90
48836;DHT22;62581;47.342;7.908;2023-07-16T05:52:16;21.00;99.90
48836;DHT22;62581;47.342;7.908;2023-07-16T05:54:43;21.10;99.90
48836;DHT22;62581;47.342;7.908;2023-07-16T05:57:11;21.20;99.90
48836;DHT22;62581;47.342;7.908;2023-07-16T05:59:37;21.40;99.90
48836;DHT22;62581;47.342;7.908;2023-07-16T06:02:04;21.40;99.90
48836;DHT22;62581;47.342;7.908;2023-07-16T06:04:32;21.30;99.90
48836;DHT22;62581;47.342;7.908;2023-07-16T06:06:59;21.20;99.90
48836;DHT22;62581;47.342;7.908;2023-07-16T06:09:26;21.10;99.90
48836;DHT22;62581;47.342;7.908;2023-07-16T06:11:52;21.10;99.90
48836;DHT22;62581;47.342;7.908;2023-07-16T06:14:19;21.20;99.90
48836;DHT22;62581;47.342;7.908;2023-07-16T06:16:46;21.30;99.90
48836;DHT22;62581;47.342;7.908;2023-07-16T06:19:12;21.50;99.90
48836;DHT22;62581;47.342;7.908;2023-07-16T06:21:41;21.60;99.90
48836;DHT22;62581;47.342;7.908;2023-07-16T06:24:07;21.70;99.90
48836;DHT22;62581;47.342;7.908;2023-07-16T06:26:34;21.80;99.90
48836;DHT22;62581;47.342;7.908;2023-07-16T06:29:01;21.90;99.90
48836;DHT22;62581;47.342;7.908;2023-07-16T06:31:28;21.90;99.90
48836;DHT22;62581;47.342;7.908;2023-07-16T06:33:55;21.90;99.90
48836;DHT22;62581;47.342;7.908;2023-07-16T06:36:21;21.90;99.90
48836;DHT22;62581;47.342;7.908;2023-07-16T06:38:49;21.80;99.90
48836;DHT22;62581;47.342;7.908;2023-07-16T06:41:17;21.90;99.90
48836;DHT22;62581;47.342;7.908;2023-07-16T06:43:44;22.00;99.90
48836;DHT22;62581;47.342;7.908;2023-07-16T06:46:11;22.00;99.90
48836;DHT22;62581;47.342;7.908;2023-07-16T06:48:37;21.90;99.90
48836;DHT22;62581;47.342;7.908;2023-07-16T06:51:04;22.00;99.90
48836;DHT22;62581;47.342;7.908;2023-07-16T06:53:32;22.00;99.90
48836;DHT22;62581;47.342;7.908;2023-07-16T06:56:00;22.00;99.90
48836;DHT22;62581;47.342;7.908;2023-07-16T06:58:30;22.20;99.90
48836;DHT22;62581;47.342;7.908;2023-07-16T07:00:57;22.30;99.90
48836;DHT22;62581;47.342;7.908;2023-07-16T07:03:24;22.30;99.90
48836;DHT22;62581;47.342;7.908;2023-07-16T07:05:50;22.30;99.90
48836;DHT22;62581;47.342;7.908;2023-07-16T07:08:17;22.20;99.90
48836;DHT22;62581;47.342;7.908;2023-07-16T07:10:44;22.20;99.90
48836;DHT22;62581;47.342;7.908;2023-07-16T07:13:12;22.10;99.90
48836;DHT22;62581;47.342;7.908;2023-07-16T07:15:39;22.00;99.90
48836;DHT22;62581;47.342;7.908;2023-07-16T07:18:05;21.90;99.90
48836;DHT22;62581;47.342;7.908;2023-07-16T07:20:32;22.00;99.90
48836;DHT22;62581;47.342;7.908;2023-07-16T07:22:59;21.90;99.90
48836;DHT22;62581;47.342;7.908;2023-07-16T07:25:27;21.90;99.90
48836;DHT22;62581;47.342;7.908;2023-07-16T07:27:54;22.00;99.90
48836;DHT22;62581;47.342;7.908;2023-07-16T07:30:22;22.00;99.90
48836;DHT22;62581;47.342;7.908;2023-07-16T07:32:49;22.20;99.90
48836;DHT22;62581;47.342;7.908;2023-07-16T07:35:16;22.20;99.90
48836;DHT22;62581;47.342;7.908;2023-07-16T07:37:43;22.20;99.90
48836;DHT22;62581;47.342;7.908;2023-07-16T07:40:10;22.30;99.90
48836;DHT22;62581;47.342;7.908;2023-07-16T07:42:36;22.50;99.90
48836;DHT22;62581;47.342;7.908;2023-07-16T07:45:04;22.40;99.90
48836;DHT22;62581;47.342;7.908;2023-07-16T07:47:32;22.70;99.90
48836;DHT22;62581;47.342;7.908;2023-07-16T07:49:59;23.10;99.90
48836;DHT22;62581;47.342;7.908;2023-07-16T07:52:26;23.20;99.90
48836;DHT22;62581;47.342;7.908;2023-07-16T07:54:53;23.30;99.90
48836;DHT22;62581;47.342;7.908;2023-07-16T07:57:19;23.10;99.90
48836;DHT22;62581;47.342;7.908;2023-07-16T07:59:46;22.80;99.90
48836;DHT22;62581;47.342;7.908;2023-07-16T08:02:13;22.70;99.90
48836;DHT22;62581;47.342;7.908;2023-07-16T08:04:41;22.90;99.90
48836;DHT22;62581;47.342;7.908;2023-07-16T08:07:08;23.10;99.90
48836;DHT22;62581;47.342;7.908;2023-07-16T08:09:37;23.20;99.90
48836;DHT22;62581;47.342;7.908;2023-07-16T08:12:04;23.20;99.90
48836;DHT22;62581;47.342;7.908;2023-07-16T08:14:31;22.90;99.90
48836;DHT22;62581;47.342;7.908;2023-07-16T08:16:57;23.10;99.90
48836;DHT22;62581;47.342;7.908;2023-07-16T08:19:24;22.60;99.90
48836;DHT22;62581;47.342;7.908;2023-07-16T08:21:52;22.50;99.90
48836;DHT22;62581;47.342;7.908;2023-07-16T08:24:19;22.50;99.90
48836;DHT22;62581;47.342;7.908;2023-07-16T08:26:46;22.40;99.90
48836;DHT22;62581;47.342;7.908;2023-07-16T08:29:13;22.40;99.90
48836;DHT22;62581;47.342;7.908;2023-07-16T08:31:39;22.20;99.90
48836;DHT22;62581;47.342;7.908;2023-07-16T08:34:07;22.10;99.90
48836;DHT22;62581;47.342;7.908;2023-07-16T08:36:34;22.10;99.90
48836;DHT22;62581;47.342;7.908;2023-07-16T08:39:02;22.20;99.90
48836;DHT22;62581;47.342;7.908;2023-07-16T08:41:28;22.20;99.90
48836;DHT22;62581;47.342;7.908;2023-07-16T08:43:55;22.30;99.90
48836;DHT22;62581;47.342;7.908;2023-07-16T08:46:22;22.20;99.90
48836;DHT22;62581;47.342;7.908;2023-07-16T08:48:49;22.10;99.90
48836;DHT22;62581;47.342;7.908;2023-07-16T08:51:17;22.10;99.90
48836;DHT22;62581;47.342;7.908;2023-07-16T08:53:44;22.20;99.90
48836;DHT22;62581;47.342;7.908;2023-07-16T08:56:12;21.90;99.90
48836;DHT22;62581;47.342;7.908;2023-07-16T08:58:39;21.90;99.90
48836;DHT22;62581;47.342;7.908;2023-07-16T09:01:07;22.00;99.90
48836;DHT22;62581;47.342;7.908;2023-07-16T09:03:33;22.20;99.90
48836;DHT22;62581;47.342;7.908;2023-07-16T09:06:00;22.40;99.90
48836;DHT22;62581;47.342;7.908;2023-07-16T09:08:28;22.60;99.90
48836;DHT22;62581;47.342;7.908;2023-07-16T09:10:55;22.80;99.90
48836;DHT22;62581;47.342;7.908;2023-07-16T09:13:23;23.00;99.90
48836;DHT22;62581;47.342;7.908;2023-07-16T09:15:52;23.30;99.90
48836;DHT22;62581;47.342;7.908;2023-07-16T09:18:19;23.50;99.90
48836;DHT22;62581;47.342;7.908;2023-07-16T09:20:46;23.70;99.90
48836;DHT22;62581;47.342;7.908;2023-07-16T09:23:13;23.80;99.90
48836;DHT22;62581;47.342;7.908;2023-07-16T09:25:43;23.90;99.90
48836;DHT22;62581;47.342;7.908;2023-07-16T09:28:10;24.00;99.90
48836;DHT22;62581;47.342;7.908;2023-07-16T09:30:38;24.30;99.90
48836;DHT22;62581;47.342;7.908;2023-07-16T09:33:14;24.50;99.90
48836;DHT22;62581;47.342;7.908;2023-07-16T09:35:40;24.60;99.90
48836;DHT22;62581;47.342;7.908;2023-07-16T09:38:07;24.50;99.90
48836;DHT22;62581;47.342;7.908;2023-07-16T09:40:35;24.60;99.90
48836;DHT22;62581;47.342;7.908;2023-07-16T09:43:02;24.80;99.90
48836;DHT22;62581;47.342;7.908;2023-07-16T09:45:29;24.90;99.90
48836;DHT22;62581;47.342;7.908;2023-07-16T09:47:57;24.90;99.90
48836;DHT22;62581;47.342;7.908;2023-07-16T09:50:24;24.90;99.90
48836;DHT22;62581;47.342;7.908;2023-07-16T09:52:53;24.50;99.90
48836;DHT22;62581;47.342;7.908;2023-07-16T09:55:21;24.40;99.90
48836;DHT22;62581;47.342;7.908;2023-07-16T09:57:48;23.60;99.90
48836;DHT22;62581;47.342;7.908;2023-07-16T10:00:15;23.00;99.90
48836;DHT22;62581;47.342;7.908;2023-07-16T10:02:44;23.00;99.90
48836;DHT22;62581;47.342;7.908;2023-07-16T10:05:13;23.00;99.90
48836;DHT22;62581;47.342;7.908;2023-07-16T10:07:40;23.10;99.90
48836;DHT22;62581;47.342;7.908;2023-07-16T10:10:07;23.30;99.90
48836;DHT22;62581;47.342;7.908;2023-07-16T10:12:34;23.30;99.90
48836;DHT22;62581;47.342;7.908;2023-07-16T10:15:01;23.60;99.90
48836;DHT22;62581;47.342;7.908;2023-07-16T10:17:29;23.90;99.90
48836;DHT22;62581;47.342;7.908;2023-07-16T10:19:57;24.10;99.90
48836;DHT22;62581;47.342;7.908;2023-07-16T10:22:33;24.10;99.90
48836;DHT22;62581;47.342;7.908;2023-07-16T10:25:00;24.00;99.90
48836;DHT22;62581;47.342;7.908;2023-07-16T10:27:28;23.90;99.90
48836;DHT22;62581;47.342;7.908;2023-07-16T10:29:54;23.70;99.90
48836;DHT22;62581;47.342;7.908;2023-07-16T10:32:21;23.60;99.90
48836;DHT22;62581;47.342;7.908;2023-07-16T10:34:48;23.50;99.90
48836;DHT22;62581;47.342;7.908;2023-07-16T10:37:15;23.50;99.90
48836;DHT22;62581;47.342;7.908;2023-07-16T10:39:47;23.60;99.90
48836;DHT22;62581;47.342;7.908;2023-07-16T10:42:15;23.50;99.90
48836;DHT22;62581;47.342;7.908;2023-07-16T10:44:41;23.60;99.90
48836;DHT22;62581;47.342;7.908;2023-07-16T10:47:08;23.80;99.90
48836;DHT22;62581;47.342;7.908;2023-07-16T10:49:35;23.90;99.90
48836;DHT22;62581;47.342;7.908;2023-07-16T10:52:02;24.20;99.90
48836;DHT22;62581;47.342;7.908;2023-07-16T10:54:29;24.30;99.90
48836;DHT22;62581;47.342;7.908;2023-07-16T10:56:57;24.50;99.90
48836;DHT22;62581;47.342;7.908;2023-07-16T10:59:23;24.50;99.90
48836;DHT22;62581;47.342;7.908;2023-07-16T11:01:50;24.60;99.90
48836;DHT22;62581;47.342;7.908;2023-07-16T11:04:17;24.70;99.90
48836;DHT22;62581;47.342;7.908;2023-07-16T11:06:44;24.80;99.90
48836;DHT22;62581;47.342;7.908;2023-07-16T11:09:10;25.00;99.90
48836;DHT22;62581;47.342;7.908;2023-07-16T11:11:37;25.10;99.90
48836;DHT22;62581;47.342;7.908;2023-07-16T11:14:07;25.20;99.90
48836;DHT22;62581;47.342;7.908;2023-07-16T11:16:34;24.90;99.90
48836;DHT22;62581;47.342;7.908;2023-07-16T11:19:01;24.40;99.90
48836;DHT22;62581;47.342;7.908;2023-07-16T11:21:28;24.30;99.90
48836;DHT22;62581;47.342;7.908;2023-07-16T11:23:55;24.50;99.90
48836;DHT22;62581;47.342;7.908;2023-07-16T11:26:22;24.90;99.90
48836;DHT22;62581;47.342;7.908;2023-07-16T11:28:50;25.30;99.90
48836;DHT22;62581;47.342;7.908;2023-07-16T11:31:18;25.70;99.90
48836;DHT22;62581;47.342;7.908;2023-07-16T11:33:45;25.80;99.90
48836;DHT22;62581;47.342;7.908;2023-07-16T11:36:12;25.70;99.90
48836;DHT22;62581;47.342;7.908;2023-07-16T11:38:39;25.50;99.90
48836;DHT22;62581;47.342;7.908;2023-07-16T11:41:05;25.80;99.90
48836;DHT22;62581;47.342;7.908;2023-07-16T11:43:35;25.80;99.90
48836;DHT22;62581;47.342;7.908;2023-07-16T11:46:02;25.80;99.90
48836;DHT22;62581;47.342;7.908;2023-07-16T11:48:30;26.00;99.90
48836;DHT22;62581;47.342;7.908;2023-07-16T11:50:57;26.30;99.90
48836;DHT22;62581;47.342;7.908;2023-07-16T11:53:24;26.00;99.90
48836;DHT22;62581;47.342;7.908;2023-07-16T11:55:51;25.80;99.90
48836;DHT22;62581;47.342;7.908;2023-07-16T11:58:18;26.10;99.90
48836;DHT22;62581;47.342;7.908;2023-07-16T12:00:45;26.40;99.90
48836;DHT22;62581;47.342;7.908;2023-07-16T12:03:12;26.30;99.90
48836;DHT22;62581;47.342;7.908;2023-07-16T12:05:40;26.20;99.90
48836;DHT22;62581;47.342;7.908;2023-07-16T12:08:07;26.40;99.90
48836;DHT22;62581;47.342;7.908;2023-07-16T12:10:39;26.70;99.90
48836;DHT22;62581;47.342;7.908;2023-07-16T12:13:06;26.90;99.90
48836;DHT22;62581;47.342;7.908;2023-07-16T12:15:32;26.90;99.90
48836;DHT22;62581;47.342;7.908;2023-07-16T12:17:59;26.60;99.90
48836;DHT22;62581;47.342;7.908;2023-07-16T12:20:26;26.60;99.90
48836;DHT22;62581;47.342;7.908;2023-07-16T12:22:54;26.00;99.90
48836;DHT22;62581;47.342;7.908;2023-07-16T12:25:21;25.90;99.90
48836;DHT22;62581;47.342;7.908;2023-07-16T12:27:48;26.00;99.90
48836;DHT22;62581;47.342;7.908;2023-07-16T12:30:14;26.10;99.90
48836;DHT22;62581;47.342;7.908;2023-07-16T12:32:41;26.20;99.90
48836;DHT22;62581;47.342;7.908;2023-07-16T12:35:08;26.40;99.90
48836;DHT22;62581;47.342;7.908;2023-07-16T12:37:35;26.40;99.90
48836;DHT22;62581;47.342;7.908;2023-07-16T12:40:03;26.20;99.90
48836;DHT22;62581;47.342;7.908;2023-07-16T12:42:30;26.10;99.90
48836;DHT22;62581;47.342;7.908;2023-07-16T12:44:58;26.40;99.90
48836;DHT22;62581;47.342;7.908;2023-07-16T12:47:24;26.80;99.90
48836;DHT22;62581;47.342;7.908;2023-07-16T12:49:51;27.60;99.90
48836;DHT22;62581;47.342;7.908;2023-07-16T12:52:18;28.70;99.90
48836;DHT22;62581;47.342;7.908;2023-07-16T12:54:45;29.10;99.90
48836;DHT22;62581;47.342;7.908;2023-07-16T12:57:13;29.70;99.90
48836;DHT22;62581;47.342;7.908;2023-07-16T12:59:40;30.20;99.90
48836;DHT22;62581;47.342;7.908;2023-07-16T13:02:06;30.50;99.50
48836;DHT22;62581;47.342;7.908;2023-07-16T13:04:33;30.70;98.30
48836;DHT22;62581;47.342;7.908;2023-07-16T13:07:00;30.40;98.10
48836;DHT22;62581;47.342;7.908;2023-07-16T13:09:27;30.30;98.30
48836;DHT22;62581;47.342;7.908;2023-07-16T13:11:53;29.90;98.80
48836;DHT22;62581;47.342;7.908;2023-07-16T13:14:21;30.90;98.00
48836;DHT22;62581;47.342;7.908;2023-07-16T13:16:48;32.20;96.80
48836;DHT22;62581;47.342;7.908;2023-07-16T13:19:15;32.60;94.80
48836;DHT22;62581;47.342;7.908;2023-07-16T13:21:42;32.10;94.40
48836;DHT22;62581;47.342;7.908;2023-07-16T13:24:08;32.00;94.70
48836;DHT22;62581;47.342;7.908;2023-07-16T13:26:35;31.90;95.10
48836;DHT22;62581;47.342;7.908;2023-07-16T13:29:02;32.70;93.50
48836;DHT22;62581;47.342;7.908;2023-07-16T13:31:30;33.60;92.60
48836;DHT22;62581;47.342;7.908;2023-07-16T13:33:57;33.50;91.60
48836;DHT22;62581;47.342;7.908;2023-07-16T13:36:24;33.80;91.90
48836;DHT22;62581;47.342;7.908;2023-07-16T13:38:50;34.90;90.20
48836;DHT22;62581;47.342;7.908;2023-07-16T13:41:17;35.00;88.80
48836;DHT22;62581;47.342;7.908;2023-07-16T13:43:44;35.50;87.30
48836;DHT22;62581;47.342;7.908;2023-07-16T13:46:11;35.90;85.50
48836;DHT22;62581;47.342;7.908;2023-07-16T13:48:39;36.40;83.60
48836;DHT22;62581;47.342;7.908;2023-07-16T13:51:06;35.60;83.30
48836;DHT22;62581;47.342;7.908;2023-07-16T13:53:32;35.90;83.10
48836;DHT22;62581;47.342;7.908;2023-07-16T13:55:59;37.00;81.20
48836;DHT22;62581;47.342;7.908;2023-07-16T13:58:26;38.50;77.30
48836;DHT22;62581;47.342;7.908;2023-07-16T14:00:53;39.90;73.80
48836;DHT22;62581;47.342;7.908;2023-07-16T14:03:19;38.80;71.80
48836;DHT22;62581;47.342;7.908;2023-07-16T14:05:47;37.80;72.60
48836;DHT22;62581;47.342;7.908;2023-07-16T14:08:14;35.30;77.50
48836;DHT22;62581;47.342;7.908;2023-07-16T14:10:41;35.60;80.10
48836;DHT22;62581;47.342;7.908;2023-07-16T14:13:08;36.40;75.70
48836;DHT22;62581;47.342;7.908;2023-07-16T14:15:35;37.40;75.50
48836;DHT22;62581;47.342;7.908;2023-07-16T14:18:01;38.90;72.60
48836;DHT22;62581;47.342;7.908;2023-07-16T14:20:28;38.90;70.60
48836;DHT22;62581;47.342;7.908;2023-07-16T14:22:57;37.50;72.60
48836;DHT22;62581;47.342;7.908;2023-07-16T14:25:23;36.20;73.70
48836;DHT22;62581;47.342;7.908;2023-07-16T14:27:50;36.50;74.50
48836;DHT22;62581;47.342;7.908;2023-07-16T14:30:17;37.00;74.80
48836;DHT22;62581;47.342;7.908;2023-07-16T14:32:43;37.50;73.80
48836;DHT22;62581;47.342;7.908;2023-07-16T14:35:10;37.70;71.80
48836;DHT22;62581;47.342;7.908;2023-07-16T14:37:38;38.10;70.90
48836;DHT22;62581;47.342;7.908;2023-07-16T14:40:06;38.20;70.40
48836;DHT22;62581;47.342;7.908;2023-07-16T14:42:34;38.20;70.20
48836;DHT22;62581;47.342;7.908;2023-07-16T14:45:00;39.20;68.90
48836;DHT22;62581;47.342;7.908;2023-07-16T14:47:28;38.10;69.60
48836;DHT22;62581;47.342;7.908;2023-07-16T14:49:54;36.40;72.10
48836;DHT22;62581;47.342;7.908;2023-07-16T14:52:21;35.00;74.20
48836;DHT22;62581;47.342;7.908;2023-07-16T14:54:48;34.10;76.90
48836;DHT22;62581;47.342;7.908;2023-07-16T14:57:16;34.80;77.60
48836;DHT22;62581;47.342;7.908;2023-07-16T14:59:43;36.90;74.90
48836;DHT22;62581;47.342;7.908;2023-07-16T15:02:10;39.10;70.00
48836;DHT22;62581;47.342;7.908;2023-07-16T15:04:37;39.30;68.30
48836;DHT22;62581;47.342;7.908;2023-07-16T15:07:04;38.80;69.30
48836;DHT22;62581;47.342;7.908;2023-07-16T15:09:31;38.00;68.70
48836;DHT22;62581;47.342;7.908;2023-07-16T15:11:58;37.40;71.00
48836;DHT22;62581;47.342;7.908;2023-07-16T15:14:26;37.10;71.00
48836;DHT22;62581;47.342;7.908;2023-07-16T15:16:53;36.70;72.80
48836;DHT22;62581;47.342;7.908;2023-07-16T15:19:19;37.70;70.10
48836;DHT22;62581;47.342;7.908;2023-07-16T15:21:46;37.60;70.30
48836;DHT22;62581;47.342;7.908;2023-07-16T15:24:13;38.70;69.50
48836;DHT22;62581;47.342;7.908;2023-07-16T15:26:40;39.50;67.00
48836;DHT22;62581;47.342;7.908;2023-07-16T15:29:06;40.90;64.90